createdAt,value
2023-01-30T00:00:54.798Z,22.48
2023-01-30T00:01:58.164Z,19.70
2023-01-30T00:03:01.305Z,18.17
2023-01-30T00:04:04.317Z,18.77
2023-01-30T00:05:10.667Z,18.87
2023-01-30T00:06:14.850Z,20.48
2023-01-30T00:07:17.826Z,22.42
2023-01-30T00:08:20.816Z,21.92
2023-01-30T00:09:23.783Z,19.95
2023-01-30T00:10:26.823Z,18.65
2023-01-30T00:11:30.368Z,17.92
2023-01-30T00:12:33.549Z,22.10
2023-01-30T00:13:37.425Z,19.35
2023-01-30T00:14:40.540Z,19.75
2023-01-30T00:15:43.871Z,19.85
2023-01-30T00:16:47.321Z,18.00
2023-01-30T00:17:50.375Z,22.15
2023-01-30T00:18:53.623Z,16.35
2023-01-30T00:19:56.669Z,21.10
2023-01-30T00:21:01.470Z,16.50
2023-01-30T00:22:04.404Z,20.25
2023-01-30T00:23:07.463Z,21.65
2023-01-30T00:24:10.607Z,19.25
2023-01-30T00:25:13.780Z,21.50
2023-01-30T00:26:17.023Z,18.08
2023-01-30T00:27:20.013Z,21.42
2023-01-30T00:28:23.516Z,18.45
2023-01-30T00:29:26.427Z,19.58
2023-01-30T00:30:29.990Z,18.60
2023-01-30T00:31:32.998Z,21.95
2023-01-30T00:32:36.147Z,22.65
2023-01-30T00:33:40.000Z,17.87
2023-01-30T00:34:43.067Z,20.25
2023-01-30T00:35:48.030Z,18.45
2023-01-30T00:36:58.908Z,17.50
2023-01-30T00:38:10.588Z,19.00
2023-01-30T00:39:13.760Z,18.23
2023-01-30T00:40:17.571Z,18.85
2023-01-30T00:41:20.755Z,22.42
2023-01-30T00:42:42.396Z,21.02
2023-01-30T00:44:04.153Z,29.27
2023-01-30T00:45:28.734Z,35.47
2023-01-30T00:47:03.186Z,21.00
2023-01-30T00:48:07.103Z,21.70
2023-01-30T00:49:10.297Z,21.92
2023-01-30T00:50:13.567Z,22.08
2023-01-30T00:51:16.711Z,24.48
2023-01-30T00:52:19.775Z,25.90
2023-01-30T00:53:22.884Z,23.10
2023-01-30T00:54:25.930Z,22.33
2023-01-30T00:55:28.941Z,21.02
2023-01-30T00:56:32.012Z,17.83
2023-01-30T00:57:35.087Z,18.65
2023-01-30T00:58:38.079Z,20.20
2023-01-30T00:59:41.251Z,16.85
2023-01-30T01:00:44.276Z,18.42
2023-01-30T01:01:47.419Z,20.67
2023-01-30T01:02:50.517Z,17.65
2023-01-30T01:03:53.556Z,23.98
2023-01-30T01:04:56.678Z,18.00
2023-01-30T01:05:59.607Z,21.08
2023-01-30T01:07:02.648Z,22.80
2023-01-30T01:08:06.337Z,19.58
2023-01-30T01:09:09.963Z,19.90
2023-01-30T01:10:16.840Z,22.35
2023-01-30T01:11:26.049Z,22.62
2023-01-30T01:12:29.171Z,18.92
2023-01-30T01:13:32.638Z,18.95
2023-01-30T01:14:35.712Z,19.35
2023-01-30T01:15:39.269Z,23.42
2023-01-30T01:16:42.545Z,21.95
2023-01-30T01:17:46.404Z,22.73
2023-01-30T01:18:49.890Z,25.62
2023-01-30T01:19:52.914Z,22.02
2023-01-30T01:20:56.002Z,22.52
2023-01-30T01:21:59.106Z,22.33
2023-01-30T01:23:02.117Z,24.90
2023-01-30T01:24:05.441Z,21.58
2023-01-30T01:25:10.875Z,24.37
2023-01-30T01:26:13.852Z,20.25
2023-01-30T01:27:17.000Z,20.55
2023-01-30T01:28:22.436Z,18.23
2023-01-30T01:29:25.701Z,21.27
2023-01-30T01:30:28.682Z,19.17
2023-01-30T01:31:32.055Z,20.52
2023-01-30T01:32:35.160Z,22.67
2023-01-30T01:33:38.507Z,21.20
2023-01-30T01:34:41.659Z,19.77
2023-01-30T01:35:44.886Z,22.70
2023-01-30T01:36:53.903Z,18.60
2023-01-30T01:37:57.577Z,20.52
2023-01-30T01:39:00.566Z,20.58
2023-01-30T01:40:22.939Z,26.70
2023-01-30T01:41:26.060Z,18.25
2023-01-30T01:42:36.114Z,17.48
2023-01-30T01:44:01.346Z,20.98
2023-01-30T01:45:04.384Z,19.33
2023-01-30T01:46:21.032Z,25.40
2023-01-30T01:47:24.044Z,22.48
2023-01-30T01:48:30.086Z,22.08
2023-01-30T01:49:37.216Z,20.60
2023-01-30T01:50:49.636Z,18.60
2023-01-30T01:52:03.598Z,23.70
2023-01-30T01:53:08.838Z,25.20
2023-01-30T01:54:17.112Z,20.52
2023-01-30T01:55:21.862Z,19.95
2023-01-30T01:56:26.175Z,16.73
2023-01-30T01:57:40.262Z,20.37
2023-01-30T01:58:48.537Z,17.35
2023-01-30T02:00:13.246Z,18.65
2023-01-30T02:01:16.213Z,20.45
2023-01-30T02:02:24.723Z,16.92
2023-01-30T02:03:31.823Z,19.48
2023-01-30T02:04:56.128Z,21.85
2023-01-30T02:06:07.081Z,20.73
2023-01-30T02:07:10.607Z,22.02
2023-01-30T02:08:25.414Z,17.67
2023-01-30T02:09:28.461Z,19.87
2023-01-30T02:10:46.182Z,24.23
2023-01-30T02:11:56.398Z,20.88
2023-01-30T02:12:59.510Z,23.33
2023-01-30T02:14:03.382Z,24.80
2023-01-30T02:15:07.198Z,20.45
2023-01-30T02:16:10.220Z,19.10
2023-01-30T02:17:13.257Z,23.00
2023-01-30T02:18:16.827Z,22.65
2023-01-30T02:19:41.616Z,21.98
2023-01-30T02:20:47.424Z,23.38
2023-01-30T02:22:28.821Z,23.23
2023-01-30T02:24:08.602Z,25.12
2023-01-30T02:25:51.703Z,25.83
2023-01-30T02:27:09.982Z,21.90
2023-01-30T02:28:34.818Z,24.75
2023-01-30T02:29:40.632Z,24.15
2023-01-30T02:30:52.435Z,22.83
2023-01-30T02:32:03.844Z,22.70
2023-01-30T02:33:22.124Z,22.52
2023-01-30T02:34:43.187Z,21.95
2023-01-30T02:36:12.267Z,24.50
2023-01-30T02:37:25.512Z,24.40
2023-01-30T02:38:47.173Z,20.75
2023-01-30T02:40:16.913Z,24.63
2023-01-30T02:41:31.659Z,26.52
2023-01-30T02:42:59.461Z,20.50
2023-01-30T02:44:11.827Z,26.08
2023-01-30T02:45:37.992Z,27.62
2023-01-30T02:47:04.311Z,25.75
2023-01-30T02:48:14.030Z,23.20
2023-01-30T02:49:20.942Z,24.73
2023-01-30T02:50:29.662Z,23.52
2023-01-30T02:51:37.463Z,21.98
2023-01-30T02:52:41.467Z,24.08
2023-01-30T02:53:47.661Z,25.88
2023-01-30T02:54:50.625Z,26.85
2023-01-30T02:55:53.552Z,28.60
2023-01-30T02:57:00.786Z,27.23
2023-01-30T02:58:05.196Z,25.92
2023-01-30T02:59:08.228Z,26.30
2023-01-30T03:00:16.471Z,22.55
2023-01-30T03:01:50.462Z,26.15
2023-01-30T03:03:11.835Z,22.85
2023-01-30T03:04:40.750Z,24.35
2023-01-30T03:06:12.801Z,25.45
2023-01-30T03:07:47.721Z,24.52
2023-01-30T03:09:30.264Z,20.00
2023-01-30T03:10:48.298Z,23.62
2023-01-30T03:12:19.387Z,24.25
2023-01-30T03:13:34.635Z,23.67
2023-01-30T03:14:47.983Z,22.85
2023-01-30T03:16:25.109Z,22.15
2023-01-30T03:17:32.232Z,19.02
2023-01-30T03:18:35.381Z,22.58
2023-01-30T03:19:38.657Z,25.08
2023-01-30T03:20:42.558Z,25.65
2023-01-30T03:21:46.135Z,23.90
2023-01-30T03:22:49.442Z,21.73
2023-01-30T03:23:52.727Z,23.67
2023-01-30T03:24:55.898Z,22.33
2023-01-30T03:26:00.121Z,23.50
2023-01-30T03:27:11.072Z,23.30
2023-01-30T03:28:18.825Z,24.58
2023-01-30T03:29:23.055Z,19.77
2023-01-30T03:30:30.700Z,23.38
2023-01-30T03:31:33.884Z,21.75
2023-01-30T03:32:40.610Z,21.30
2023-01-30T03:33:43.666Z,24.98
2023-01-30T03:34:46.698Z,21.08
2023-01-30T03:35:51.404Z,19.75
2023-01-30T03:36:54.491Z,22.40
2023-01-30T03:37:58.966Z,21.50
2023-01-30T03:39:02.515Z,22.60
2023-01-30T03:40:06.222Z,21.55
2023-01-30T03:41:09.361Z,21.98
2023-01-30T03:42:12.553Z,22.73
2023-01-30T03:43:15.527Z,19.75
2023-01-30T03:44:18.634Z,22.35
2023-01-30T03:45:21.570Z,24.83
2023-01-30T03:46:24.704Z,22.77
2023-01-30T03:47:27.691Z,24.55
2023-01-30T03:48:30.893Z,23.27
2023-01-30T03:49:33.916Z,24.75
2023-01-30T03:50:36.937Z,24.48
2023-01-30T03:51:43.677Z,23.70
2023-01-30T03:52:46.692Z,24.25
2023-01-30T03:53:49.894Z,21.90
2023-01-30T03:54:53.168Z,29.00
2023-01-30T03:55:56.204Z,29.83
2023-01-30T03:56:59.290Z,28.20
2023-01-30T03:58:02.448Z,28.25
2023-01-30T03:59:05.416Z,25.98
2023-01-30T04:00:09.535Z,23.15
2023-01-30T04:01:12.589Z,24.00
2023-01-30T04:02:15.930Z,24.92
2023-01-30T04:03:18.819Z,22.70
2023-01-30T04:04:22.109Z,23.30
2023-01-30T04:05:25.710Z,24.08
2023-01-30T04:06:28.670Z,24.87
2023-01-30T04:07:32.022Z,22.30
2023-01-30T04:08:35.123Z,20.85
2023-01-30T04:09:38.161Z,20.42
2023-01-30T04:10:41.191Z,20.55
2023-01-30T04:11:44.391Z,23.55
2023-01-30T04:12:47.930Z,25.05
2023-01-30T04:13:51.026Z,22.20
2023-01-30T04:14:54.025Z,23.92
2023-01-30T04:16:19.530Z,17.30
2023-01-30T04:17:23.127Z,26.77
2023-01-30T04:18:26.822Z,24.37
2023-01-30T04:19:29.951Z,26.15
2023-01-30T04:20:33.055Z,22.17
2023-01-30T04:21:36.082Z,23.00
2023-01-30T04:22:39.080Z,20.20
2023-01-30T04:23:42.796Z,22.92
2023-01-30T04:24:45.882Z,24.67
2023-01-30T04:25:48.963Z,23.87
2023-01-30T04:26:52.189Z,26.08
2023-01-30T04:27:55.455Z,24.10
2023-01-30T04:28:58.919Z,28.60
2023-01-30T04:30:02.082Z,22.13
2023-01-30T04:31:07.396Z,23.85
2023-01-30T04:32:10.476Z,21.50
2023-01-30T04:33:13.530Z,23.83
2023-01-30T04:34:16.630Z,22.75
2023-01-30T04:35:20.027Z,24.63
2023-01-30T04:36:23.452Z,23.80
2023-01-30T04:37:26.960Z,23.05
2023-01-30T04:38:31.860Z,23.27
2023-01-30T04:39:34.915Z,26.12
2023-01-30T04:40:37.959Z,19.92
2023-01-30T04:41:40.937Z,25.17
2023-01-30T04:42:44.008Z,26.02
2023-01-30T04:43:47.105Z,22.95
2023-01-30T04:44:50.219Z,21.55
2023-01-30T04:45:53.993Z,23.85
2023-01-30T04:46:57.026Z,21.33
2023-01-30T04:48:00.089Z,21.65
2023-01-30T04:49:03.387Z,27.45
2023-01-30T04:50:07.022Z,21.65
2023-01-30T04:51:10.301Z,23.92
2023-01-30T04:52:13.262Z,23.40
2023-01-30T04:53:17.143Z,24.00
2023-01-30T04:54:20.338Z,28.27
2023-01-30T04:55:23.504Z,23.12
2023-01-30T04:56:26.677Z,22.92
2023-01-30T04:57:29.948Z,24.20
2023-01-30T04:58:32.955Z,24.27
2023-01-30T04:59:36.107Z,22.05
2023-01-30T05:00:39.105Z,23.17
2023-01-30T05:01:42.200Z,27.17
2023-01-30T05:02:45.217Z,29.48
2023-01-30T05:03:55.066Z,23.85
2023-01-30T05:05:01.625Z,31.12
2023-01-30T05:06:04.774Z,25.90
2023-01-30T05:07:11.609Z,21.50
2023-01-30T05:08:16.300Z,24.50
2023-01-30T05:09:19.303Z,23.80
2023-01-30T05:10:22.418Z,26.60
2023-01-30T05:11:27.716Z,25.23
2023-01-30T05:12:31.091Z,23.98
2023-01-30T05:13:34.109Z,25.23
2023-01-30T05:14:37.119Z,28.60
2023-01-30T05:15:44.640Z,29.17
2023-01-30T05:16:47.810Z,24.65
2023-01-30T05:17:50.800Z,26.90
2023-01-30T05:18:54.070Z,22.90
2023-01-30T05:19:57.238Z,27.15
2023-01-30T05:21:08.716Z,24.33
2023-01-30T05:22:12.661Z,23.60
2023-01-30T05:23:15.545Z,23.20
2023-01-30T05:24:18.838Z,25.37
2023-01-30T05:25:21.962Z,25.02
2023-01-30T05:26:25.338Z,21.50
2023-01-30T05:27:28.550Z,24.20
2023-01-30T05:28:31.948Z,29.17
2023-01-30T05:29:34.948Z,25.70
2023-01-30T05:30:38.056Z,19.50
2023-01-30T05:31:41.097Z,24.65
2023-01-30T05:32:44.136Z,23.52
2023-01-30T05:33:49.403Z,20.67
2023-01-30T05:34:52.459Z,28.70
2023-01-30T05:35:55.469Z,22.35
2023-01-30T05:36:58.506Z,26.45
2023-01-30T05:38:02.458Z,30.20
2023-01-30T05:39:05.467Z,25.15
2023-01-30T05:40:11.875Z,24.23
2023-01-30T05:41:16.628Z,23.23
2023-01-30T05:42:19.706Z,22.30
2023-01-30T05:43:22.811Z,23.10
2023-01-30T05:44:25.902Z,27.02
2023-01-30T05:45:28.886Z,23.73
2023-01-30T05:46:32.404Z,22.10
2023-01-30T05:47:35.303Z,24.87
2023-01-30T05:48:38.420Z,20.10
2023-01-30T05:49:41.494Z,25.67
2023-01-30T05:50:44.500Z,24.75
2023-01-30T05:51:48.512Z,23.25
2023-01-30T05:52:52.889Z,29.48
2023-01-30T05:53:56.182Z,25.25
2023-01-30T05:54:59.464Z,29.58
2023-01-30T05:56:05.899Z,32.88
2023-01-30T05:57:08.925Z,27.20
2023-01-30T05:58:12.461Z,23.75
2023-01-30T05:59:15.687Z,25.40
2023-01-30T06:00:19.411Z,23.08
2023-01-30T06:01:23.657Z,26.00
2023-01-30T06:02:26.636Z,26.92
2023-01-30T06:03:30.109Z,26.30
2023-01-30T06:04:36.618Z,22.85
2023-01-30T06:05:39.580Z,24.87
2023-01-30T06:06:42.606Z,28.73
2023-01-30T06:07:45.718Z,23.55
2023-01-30T06:08:49.219Z,25.95
2023-01-30T06:09:52.152Z,26.20
2023-01-30T06:10:55.207Z,25.27
2023-01-30T06:11:58.312Z,24.00
2023-01-30T06:13:01.258Z,26.20
2023-01-30T06:14:04.256Z,25.42
2023-01-30T06:15:07.684Z,24.00
2023-01-30T06:16:16.137Z,20.73
2023-01-30T06:17:19.251Z,26.48
2023-01-30T06:18:22.333Z,21.95
2023-01-30T06:19:25.327Z,24.35
2023-01-30T06:20:28.245Z,27.45
2023-01-30T06:21:31.943Z,22.15
2023-01-30T06:22:34.805Z,23.60
2023-01-30T06:23:39.084Z,26.42
2023-01-30T06:24:42.041Z,26.52
2023-01-30T06:25:46.043Z,24.33
2023-01-30T06:26:49.408Z,25.80
2023-01-30T06:27:52.474Z,24.63
2023-01-30T06:28:55.681Z,25.33
2023-01-30T06:29:58.723Z,26.23
2023-01-30T06:31:02.172Z,20.88
2023-01-30T06:32:05.545Z,22.27
2023-01-30T06:33:10.771Z,21.92
2023-01-30T06:34:13.721Z,22.05
2023-01-30T06:35:17.155Z,23.15
2023-01-30T06:36:20.604Z,24.23
2023-01-30T06:37:25.804Z,25.88
2023-01-30T06:38:32.575Z,26.60
2023-01-30T06:39:35.418Z,24.90
2023-01-30T06:40:39.103Z,22.40
2023-01-30T06:41:42.011Z,24.02
2023-01-30T06:42:49.022Z,25.98
2023-01-30T06:43:52.095Z,28.10
2023-01-30T06:44:55.167Z,25.65
2023-01-30T06:45:59.987Z,27.33
2023-01-30T06:47:03.105Z,27.40
2023-01-30T06:48:07.158Z,25.98
2023-01-30T06:49:10.414Z,23.48
2023-01-30T06:50:14.996Z,26.90
2023-01-30T06:51:18.040Z,31.73
2023-01-30T06:52:20.964Z,22.67
2023-01-30T06:53:30.527Z,25.10
2023-01-30T06:54:33.608Z,27.02
2023-01-30T06:55:36.865Z,27.00
2023-01-30T06:56:40.173Z,25.77
2023-01-30T06:57:44.127Z,25.83
2023-01-30T06:58:47.248Z,22.17
2023-01-30T06:59:50.522Z,24.70
2023-01-30T07:00:53.943Z,26.65
2023-01-30T07:01:57.001Z,27.20
2023-01-30T07:03:00.391Z,28.25
2023-01-30T07:04:03.380Z,28.83
2023-01-30T07:05:08.799Z,26.55
2023-01-30T07:06:11.909Z,26.95
2023-01-30T07:07:15.119Z,25.58
2023-01-30T07:08:18.161Z,25.70
2023-01-30T07:09:21.297Z,28.75
2023-01-30T07:10:26.480Z,30.70
2023-01-30T07:11:29.849Z,28.90
2023-01-30T07:12:33.239Z,28.90
2023-01-30T07:13:36.231Z,26.98
2023-01-30T07:14:39.575Z,26.23
2023-01-30T07:15:42.504Z,24.98
2023-01-30T07:16:45.582Z,34.67
2023-01-30T07:17:48.572Z,27.00
2023-01-30T07:18:51.510Z,30.30
2023-01-30T07:19:54.699Z,30.25
2023-01-30T07:20:57.667Z,27.83
2023-01-30T07:22:02.418Z,31.08
2023-01-30T07:23:06.702Z,26.83
2023-01-30T07:24:09.694Z,29.27
2023-01-30T07:25:12.775Z,29.40
2023-01-30T07:26:15.978Z,28.62
2023-01-30T07:27:18.868Z,26.80
2023-01-30T07:28:21.779Z,28.35
2023-01-30T07:29:24.659Z,28.55
2023-01-30T07:30:30.317Z,31.15
2023-01-30T07:31:33.407Z,26.95
2023-01-30T07:32:37.009Z,29.75
2023-01-30T07:33:39.981Z,26.52
2023-01-30T07:34:43.018Z,28.75
2023-01-30T07:35:45.827Z,28.20
2023-01-30T07:36:48.976Z,28.45
2023-01-30T07:37:52.183Z,27.58
2023-01-30T07:38:55.205Z,26.12
2023-01-30T07:39:58.619Z,27.62
2023-01-30T07:41:01.693Z,29.40
2023-01-30T07:42:05.913Z,30.15
2023-01-30T07:43:12.453Z,30.58
2023-01-30T07:44:15.859Z,30.88
2023-01-30T07:45:19.078Z,30.15
2023-01-30T07:46:22.227Z,28.95
2023-01-30T07:47:25.183Z,27.98
2023-01-30T07:48:28.201Z,26.30
2023-01-30T07:49:31.184Z,26.73
2023-01-30T07:50:34.467Z,36.38
2023-01-30T07:51:37.480Z,24.73
2023-01-30T07:52:40.585Z,26.80
2023-01-30T07:53:43.479Z,28.05
2023-01-30T07:54:46.472Z,25.92
2023-01-30T07:55:49.522Z,29.15
2023-01-30T07:56:52.431Z,26.12
2023-01-30T07:57:58.639Z,28.90
2023-01-30T07:59:03.237Z,28.25
2023-01-30T08:00:07.203Z,26.77
2023-01-30T08:01:10.240Z,29.92
2023-01-30T08:02:13.415Z,28.83
2023-01-30T08:03:17.660Z,28.23
2023-01-30T08:04:20.730Z,31.30
2023-01-30T08:05:23.669Z,29.67
2023-01-30T08:06:26.689Z,30.92
2023-01-30T08:07:33.618Z,24.70
2023-01-30T08:08:36.527Z,25.35
2023-01-30T08:09:39.628Z,29.50
2023-01-30T08:10:43.300Z,23.50
2023-01-30T08:11:46.502Z,26.87
2023-01-30T08:12:52.341Z,26.42
2023-01-30T08:13:55.281Z,26.02
2023-01-30T08:14:58.458Z,26.67
2023-01-30T08:16:07.644Z,24.73
2023-01-30T08:17:10.641Z,28.50
2023-01-30T08:18:14.086Z,26.33
2023-01-30T08:19:17.328Z,25.15
2023-01-30T08:20:20.721Z,28.15
2023-01-30T08:21:24.287Z,28.42
2023-01-30T08:22:29.084Z,32.60
2023-01-30T08:23:33.351Z,29.15
2023-01-30T08:24:36.860Z,22.40
2023-01-30T08:25:39.889Z,28.87
2023-01-30T08:26:43.140Z,26.87
2023-01-30T08:27:46.193Z,25.02
2023-01-30T08:28:49.634Z,25.40
2023-01-30T08:29:52.796Z,25.90
2023-01-30T08:31:01.073Z,26.50
2023-01-30T08:32:04.138Z,28.12
2023-01-30T08:33:07.255Z,30.40
2023-01-30T08:34:10.168Z,27.70
2023-01-30T08:35:13.817Z,29.87
2023-01-30T08:36:16.864Z,28.23
2023-01-30T08:37:19.842Z,24.95
2023-01-30T08:38:23.021Z,27.40
2023-01-30T08:39:26.178Z,21.15
2023-01-30T08:40:29.845Z,23.67
2023-01-30T08:41:32.769Z,22.90
2023-01-30T08:42:35.979Z,25.88
2023-01-30T08:43:39.088Z,28.87
2023-01-30T08:44:42.020Z,26.37
2023-01-30T08:45:44.958Z,23.58
2023-01-30T08:46:48.416Z,25.15
2023-01-30T08:47:52.071Z,26.98
2023-01-30T08:48:55.150Z,24.70
2023-01-30T08:49:58.305Z,24.87
2023-01-30T08:51:01.304Z,21.12
2023-01-30T08:52:04.489Z,25.27
2023-01-30T08:53:10.300Z,25.15
2023-01-30T08:54:13.375Z,24.98
2023-01-30T08:55:16.338Z,21.90
2023-01-30T08:56:19.583Z,24.85
2023-01-30T08:57:25.607Z,23.35
2023-01-30T08:58:28.529Z,22.55
2023-01-30T08:59:31.450Z,26.95
2023-01-30T09:00:34.531Z,21.50
2023-01-30T09:01:38.727Z,25.48
2023-01-30T09:02:42.221Z,23.50
2023-01-30T09:03:45.261Z,22.58
2023-01-30T09:04:48.416Z,27.02
2023-01-30T09:05:56.581Z,25.45
2023-01-30T09:07:02.606Z,23.60
2023-01-30T09:08:05.750Z,29.23
2023-01-30T09:09:08.740Z,30.90
2023-01-30T09:10:11.921Z,24.02
2023-01-30T09:11:15.359Z,27.08
2023-01-30T09:12:19.287Z,23.77
2023-01-30T09:13:22.644Z,26.65
2023-01-30T09:14:25.773Z,28.15
2023-01-30T09:15:29.347Z,27.33
2023-01-30T09:16:32.589Z,27.02
2023-01-30T09:17:35.914Z,27.13
2023-01-30T09:18:41.013Z,24.67
2023-01-30T09:19:44.913Z,23.67
2023-01-30T09:20:47.923Z,27.60
2023-01-30T09:21:52.520Z,24.00
2023-01-30T09:22:55.622Z,24.35
2023-01-30T09:23:58.676Z,25.00
2023-01-30T09:25:01.753Z,26.15
2023-01-30T09:26:06.344Z,21.17
2023-01-30T09:27:09.592Z,29.08
2023-01-30T09:28:12.868Z,25.23
2023-01-30T09:29:16.083Z,22.10
2023-01-30T09:30:20.512Z,22.98
2023-01-30T09:31:24.099Z,27.23
2023-01-30T09:32:27.167Z,25.33
2023-01-30T09:33:30.326Z,26.23
2023-01-30T09:34:33.352Z,23.52
2023-01-30T09:35:36.383Z,22.35
2023-01-30T09:36:40.806Z,23.70
2023-01-30T09:37:54.665Z,23.95
2023-01-30T09:39:04.701Z,28.05
2023-01-30T09:40:14.916Z,27.20
2023-01-30T09:41:38.413Z,23.98
2023-01-30T09:43:08.894Z,25.08
2023-01-30T09:44:14.793Z,25.98
2023-01-30T09:45:32.827Z,25.88
2023-01-30T09:46:46.916Z,22.60
2023-01-30T09:47:52.987Z,27.42
2023-01-30T09:49:04.333Z,23.52
2023-01-30T09:50:46.245Z,27.40
2023-01-30T09:51:50.316Z,23.92
2023-01-30T09:53:12.119Z,25.73
2023-01-30T09:55:26.797Z,26.20
2023-01-30T09:56:30.213Z,21.42
2023-01-30T09:57:33.293Z,27.60
2023-01-30T09:59:05.976Z,23.65
2023-01-30T10:00:15.944Z,25.00
2023-01-30T10:01:30.317Z,37.45
2023-01-30T10:02:40.337Z,31.98
2023-01-30T10:04:03.655Z,22.48
2023-01-30T10:05:07.654Z,27.50
2023-01-30T10:06:15.299Z,25.60
2023-01-30T10:07:27.537Z,33.33
2023-01-30T10:08:57.891Z,30.92
2023-01-30T10:10:38.315Z,32.55
2023-01-30T10:12:18.430Z,29.73
2023-01-30T10:13:33.608Z,27.08
2023-01-30T10:14:42.510Z,27.87
2023-01-30T10:15:54.637Z,25.10
2023-01-30T10:17:21.832Z,29.45
2023-01-30T10:18:54.509Z,26.55
2023-01-30T10:20:03.339Z,24.77
2023-01-30T10:21:28.106Z,23.55
2023-01-30T10:22:33.966Z,25.52
2023-01-30T10:23:58.688Z,22.73
2023-01-30T10:25:20.843Z,22.58
2023-01-30T10:26:27.177Z,23.33
2023-01-30T10:27:33.631Z,29.35
2023-01-30T10:28:49.885Z,28.27
2023-01-30T10:30:00.763Z,27.05
2023-01-30T10:31:16.030Z,25.73
2023-01-30T10:32:34.187Z,25.42
2023-01-30T10:34:02.659Z,27.73
2023-01-30T10:35:16.515Z,29.95
2023-01-30T10:36:46.737Z,25.62
2023-01-30T10:38:04.312Z,27.30
2023-01-30T10:39:21.799Z,27.80
2023-01-30T10:41:08.473Z,29.55
2023-01-30T10:42:38.815Z,27.35
2023-01-30T10:43:48.389Z,25.67
2023-01-30T10:45:01.320Z,24.75
2023-01-30T10:46:27.508Z,31.85
2023-01-30T10:47:49.416Z,25.65
2023-01-30T10:49:13.457Z,27.08
2023-01-30T10:50:20.778Z,28.85
2023-01-30T10:52:08.146Z,26.02
2023-01-30T10:53:35.751Z,25.95
2023-01-30T10:54:51.615Z,25.15
2023-01-30T10:56:29.814Z,25.48
2023-01-30T10:57:38.443Z,26.27
2023-01-30T10:59:16.960Z,27.70
2023-01-30T11:00:34.241Z,25.95
2023-01-30T11:01:51.069Z,24.85
2023-01-30T11:03:05.706Z,27.27
2023-01-30T11:04:30.483Z,24.48
2023-01-30T11:05:49.822Z,25.65
2023-01-30T11:06:54.199Z,26.27
2023-01-30T11:07:57.097Z,27.90
2023-01-30T11:09:00.117Z,28.27
2023-01-30T11:10:12.758Z,22.58
2023-01-30T11:11:41.446Z,27.67
2023-01-30T11:12:44.566Z,28.30
2023-01-30T11:13:47.635Z,27.27
2023-01-30T11:14:53.377Z,26.20
2023-01-30T11:16:00.021Z,27.95
2023-01-30T11:17:03.317Z,29.10
2023-01-30T11:18:58.248Z,27.30
2023-01-30T11:19:35.659Z,32.40
2023-01-30T11:20:44.059Z,26.65
2023-01-30T11:21:53.016Z,31.48
2023-01-30T11:23:06.814Z,35.47
2023-01-30T11:24:17.969Z,31.75
2023-01-30T11:25:23.298Z,33.67
2023-01-30T11:26:46.416Z,33.33
2023-01-30T11:28:03.594Z,32.15
2023-01-30T11:29:33.101Z,25.67
2023-01-30T11:30:37.151Z,29.55
2023-01-30T11:31:42.018Z,29.50
2023-01-30T11:32:48.510Z,24.30
2023-01-30T11:34:19.324Z,24.98
2023-01-30T11:35:29.739Z,25.33
2023-01-30T11:36:36.118Z,25.92
2023-01-30T11:37:44.250Z,25.40
2023-01-30T11:38:58.168Z,27.37
2023-01-30T11:40:24.432Z,23.83
2023-01-30T11:41:28.316Z,34.53
2023-01-30T11:42:35.886Z,34.60
2023-01-30T11:43:40.282Z,28.87
2023-01-30T11:44:43.829Z,38.67
2023-01-30T11:45:50.525Z,45.90
2023-01-30T11:46:53.967Z,57.33
2023-01-30T11:48:05.171Z,34.33
2023-01-30T11:49:47.543Z,26.23
2023-01-30T11:50:47.239Z,41.80
2023-01-30T11:51:54.823Z,32.90
2023-01-30T11:53:08.832Z,28.95
2023-01-30T11:54:48.312Z,30.50
2023-01-30T11:56:02.529Z,23.67
2023-01-30T11:57:20.427Z,24.83
2023-01-30T11:58:23.585Z,24.70
2023-01-30T11:59:32.517Z,21.80
2023-01-30T12:00:44.432Z,24.73
2023-01-30T12:01:47.924Z,21.45
2023-01-30T12:02:54.475Z,27.42
2023-01-30T12:03:59.249Z,27.48
2023-01-30T12:05:17.963Z,22.55
2023-01-30T12:06:43.016Z,24.10
2023-01-30T12:07:49.325Z,25.20
2023-01-30T12:08:54.647Z,22.95
2023-01-30T12:09:59.121Z,25.50
2023-01-30T12:11:02.814Z,23.85
2023-01-30T12:12:29.659Z,26.00
2023-01-30T12:13:38.535Z,31.42
2023-01-30T12:14:49.620Z,35.38
2023-01-30T12:16:15.714Z,25.12
2023-01-30T12:17:33.830Z,24.60
2023-01-30T12:19:03.909Z,25.12
2023-01-30T12:20:51.786Z,23.77
2023-01-30T12:22:11.608Z,23.38
2023-01-30T12:23:55.766Z,26.17
2023-01-30T12:25:01.123Z,23.52
2023-01-30T12:26:22.603Z,26.55
2023-01-30T12:29:23.291Z,29.65
2023-01-30T12:30:36.485Z,28.52
2023-01-30T12:31:46.544Z,25.80
2023-01-30T12:32:49.741Z,25.80
2023-01-30T12:33:56.830Z,33.85
2023-01-30T12:34:59.932Z,30.20
2023-01-30T12:36:21.682Z,29.37
2023-01-30T12:37:32.089Z,32.28
2023-01-30T12:39:07.429Z,33.42
2023-01-30T12:40:16.441Z,28.85
2023-01-30T12:41:28.849Z,27.23
2023-01-30T12:42:58.251Z,27.30
2023-01-30T12:44:04.194Z,30.30
2023-01-30T12:45:28.528Z,28.77
2023-01-30T12:46:51.551Z,31.40
2023-01-30T12:48:22.208Z,26.77
2023-01-30T12:50:02.708Z,28.20
2023-01-30T12:51:14.182Z,30.05
2023-01-30T12:52:29.348Z,29.48
2023-01-30T12:53:38.527Z,29.92
2023-01-30T12:54:50.820Z,31.75
2023-01-30T12:56:35.482Z,28.30
2023-01-30T12:57:49.622Z,31.12
2023-01-30T12:59:16.417Z,29.30
2023-01-30T13:01:00.188Z,24.92
2023-01-30T13:02:24.801Z,29.52
2023-01-30T13:03:28.717Z,27.23
2023-01-30T13:05:01.726Z,32.50
2023-01-30T13:06:36.224Z,26.50
2023-01-30T13:07:57.299Z,27.50
2023-01-30T13:09:35.839Z,26.30
2023-01-30T13:10:56.717Z,24.17
2023-01-30T13:12:29.082Z,28.30
2023-01-30T13:13:36.222Z,24.15
2023-01-30T13:15:03.387Z,26.73
2023-01-30T13:16:11.293Z,24.02
2023-01-30T13:17:20.162Z,23.40
2023-01-30T13:18:34.679Z,25.73
2023-01-30T13:19:56.283Z,23.50
2023-01-30T13:21:47.217Z,23.48
2023-01-30T13:23:13.337Z,25.02
2023-01-30T13:24:37.930Z,28.20
2023-01-30T13:25:55.684Z,25.58
2023-01-30T13:27:03.984Z,24.85
2023-01-30T13:28:14.625Z,28.08
2023-01-30T13:29:33.465Z,23.30
2023-01-30T13:30:36.613Z,24.30
2023-01-30T13:32:08.625Z,24.58
2023-01-30T13:33:39.047Z,27.15
2023-01-30T13:34:48.150Z,21.87
2023-01-30T13:36:14.045Z,25.33
2023-01-30T13:37:19.832Z,25.65
2023-01-30T13:38:27.017Z,25.25
2023-01-30T13:39:43.920Z,26.98
2023-01-30T13:41:06.442Z,28.65
2023-01-30T13:42:23.505Z,23.62
2023-01-30T13:43:37.532Z,31.02
2023-01-30T13:44:44.444Z,32.97
2023-01-30T13:45:50.951Z,25.33
2023-01-30T13:46:56.804Z,26.85
2023-01-30T13:48:24.126Z,24.08
2023-01-30T13:49:48.215Z,22.52
2023-01-30T13:51:29.199Z,22.55
2023-01-30T13:53:16.247Z,26.37
2023-01-30T13:54:31.137Z,25.92
2023-01-30T13:55:58.314Z,21.02
2023-01-30T13:57:15.146Z,23.65
2023-01-30T13:58:44.229Z,26.20
2023-01-30T14:00:10.190Z,26.12
2023-01-30T14:01:14.460Z,24.27
2023-01-30T14:02:21.156Z,26.60
2023-01-30T14:03:30.792Z,23.75
2023-01-30T14:04:42.626Z,22.48
2023-01-30T14:05:59.653Z,23.30
2023-01-30T14:07:40.284Z,24.65
2023-01-30T14:08:45.906Z,21.95
2023-01-30T14:10:02.579Z,27.67
2023-01-30T14:11:33.910Z,27.67
2023-01-30T14:12:51.310Z,30.83
2023-01-30T14:14:02.709Z,28.48
2023-01-30T14:15:14.969Z,29.30
2023-01-30T14:16:18.090Z,33.45
2023-01-30T14:17:21.280Z,30.77
2023-01-30T14:18:39.032Z,29.83
2023-01-30T14:19:44.202Z,25.75
2023-01-30T14:20:49.607Z,25.30
2023-01-30T14:22:02.286Z,19.87
2023-01-30T14:23:20.614Z,22.40
2023-01-30T14:24:27.874Z,24.75
2023-01-30T14:25:43.788Z,21.35
2023-01-30T14:26:50.597Z,20.20
2023-01-30T14:27:56.279Z,18.95
2023-01-30T14:29:00.007Z,22.83
2023-01-30T14:30:03.161Z,21.02
2023-01-30T14:31:08.270Z,17.73
2023-01-30T14:32:19.288Z,23.75
2023-01-30T14:33:22.406Z,21.62
2023-01-30T14:34:48.811Z,19.95
2023-01-30T14:36:01.291Z,22.77
2023-01-30T14:37:39.549Z,25.27
2023-01-30T14:38:45.676Z,20.17
2023-01-30T14:39:54.341Z,21.80
2023-01-30T14:41:00.573Z,18.83
2023-01-30T14:42:27.767Z,22.10
2023-01-30T14:43:43.247Z,19.45
2023-01-30T14:45:01.653Z,21.50
2023-01-30T14:46:20.367Z,20.42
2023-01-30T14:47:45.123Z,18.87
2023-01-30T14:48:55.667Z,23.33
2023-01-30T14:50:05.656Z,22.48
2023-01-30T14:51:20.830Z,28.90
2023-01-30T14:52:42.288Z,21.58